Nearby METAR Reports

 

KTEB - Teterboro, New Jersey, USA
Distance from station: ENE 2mi, 4km
Updated: 07/24/2017 1:58am
Partly cloudy
Partly cloudy
 Wind from ENE
Wind: ENE 7 mph , 11 km/h
Temperature: 72°F , 22°C
Dew Point: 68°F , 20°C
Humidity: 88%
Barometer: 29.82 inHg , 1009.8 hPa
Clouds: Partly cloudy
Visibility: 10 miles , 16 km
Cloud details: Few Clouds 1800 ft
Few Clouds 3600 ft
Partly cloudy 6000 ft
2017/07/24 05:58 KTEB 240558Z 07006KT 10SM FEW018 FEW036 SCT060 22/20 A2982 RMK AO2 T02220200
KNYC - Nyc/Central Park, New York, USA
Distance from station: SE 8mi, 13km
Updated: 07/24/2017 1:51am
Overcast
Overcast
 Wind from varies
Wind: varies 6 mph , 9 km/h
Temperature: 73°F , 23°C
Dew Point: 66°F , 19°C
Humidity: 78%
Barometer: 29.86 inHg , 1011.2 hPa
Clouds: Overcast
Visibility: 10 miles , 16 km
Cloud details: Mostly cloudy 1600 ft
Mostly cloudy 2300 ft
Overcast 3300 ft
2017/07/24 05:51 KNYC 240551Z AUTO VRB05KT 10SM BKN016 BKN023 OVC033 23/19 A2986 RMK AO2 SLP100 60000 T02280194 10239 20222 58007
 
KCDW - Caldwell, New Jersey, USA
Distance from station: WNW 10mi, 17km
Updated: 07/24/2017 2:17am
Overcast
Overcast
 Wind from E
Wind: E 7 mph , 11 km/h
Temperature: 70°F , 21°C
Barometer: 29.83 inHg , 1010.2 hPa
Clouds: Overcast
Visibility: 10 miles , 16 km
Cloud details: Partly cloudy 1000 ft
Mostly cloudy 1700 ft
Overcast 3500 ft
2017/07/24 06:17 KCDW 240617Z AUTO 08006KT 10SM SCT010 BKN017 OVC035 21/ A2983 RMK AO2 T0211 TSNO $
KLGA - Nyc/La Guardia, New York, USA
Distance from station: ESE 12mi, 19km
Updated: 07/24/2017 1:51am
Overcast
Overcast
 Wind from ENE
Wind: ENE 12 mph , 19 km/h
Temperature: 73°F , 23°C
Dew Point: 70°F , 21°C
Humidity: 89%
Barometer: 29.82 inHg , 1009.8 hPa
Clouds: Overcast
Visibility: 10 miles , 16 km
Cloud details: Mostly cloudy 1900 ft
Mostly cloudy 2600 ft
Overcast 5500 ft
2017/07/24 05:51 KLGA 240551Z 07010KT 10SM BKN019 BKN026 OVC055 23/21 A2982 RMK AO2 SLP098 60000 T02280206 10256 20228 56013 CHINO R22 SW VISNO R22 SW $
 
KEWR - Newark, New Jersey, USA
Distance from station: SSW 12mi, 20km
Updated: 07/24/2017 1:51am
Overcast
Overcast
 Wind from ESE
Wind: ESE 9 mph , 15 km/h, Gust: 17 mph , 28 km/h
Temperature: 73°F , 23°C
Dew Point: 66°F , 19°C
Humidity: 78%
Barometer: 29.82 inHg , 1009.8 hPa
Clouds: Overcast
Visibility: 10 miles , 16 km
Cloud details: Partly cloudy 2000 ft
Mostly cloudy 2600 ft
Overcast 5500 ft
2017/07/24 05:51 KEWR 240551Z 12008G15KT 10SM SCT020 BKN026 OVC055 23/19 A2982 RMK AO2 SLP096 60000 T02330189 10239 20233 58008 $
KMMU - Morristown Muni, New Jersey, USA
Distance from station: WSW 18mi, 29km
Updated: 07/24/2017 2:15am
Overcast
Overcast
 Wind from E
Wind: E 3 mph , 6 km/h
Temperature: 70°F , 21°C
Dew Point: 68°F , 20°C
Humidity: 94%
Barometer: 29.82 inHg , 1009.8 hPa
Clouds: Overcast
Visibility: 10 miles , 16 km
Cloud details: Partly cloudy 2300 ft
Partly cloudy 3300 ft
Overcast 5000 ft
2017/07/24 06:15 KMMU 240615Z AUTO 09003KT 10SM SCT023 SCT033 OVC050 21/20 A2982 RMK AO2 LTG DSNT S
 
KJFK - Nyc/Jfk Arpt, New York, USA
Distance from station: SE 23mi, 36km
Updated: 07/24/2017 1:51am
Overcast
Overcast
 Wind from ESE
Wind: ESE 13 mph , 20 km/h, Gust: 21 mph , 33 km/h
Temperature: 73°F , 23°C
Dew Point: 70°F , 21°C
Humidity: 89%
Barometer: 29.84 inHg , 1010.5 hPa
Clouds: Overcast
Visibility: 10 miles , 16 km
Cloud details: Partly cloudy 1600 ft
Overcast 5500 ft
2017/07/24 05:51 KJFK 240551Z 11011G18KT 10SM SCT016 OVC055 23/21 A2984 RMK AO2 SLP103 60000 T02330206 10233 20228 58006
KHPN - White Plains, New York, USA
Distance from station: NE 25mi, 40km
Updated: 07/24/2017 1:56am
Mostly cloudy
Mostly cloudy
 Wind from E
Wind: E 8 mph , 13 km/h
Temperature: 70°F , 21°C
Dew Point: 64°F , 18°C
Humidity: 83%
Barometer: 29.85 inHg , 1010.8 hPa
Clouds: Mostly cloudy
Visibility: 10 miles , 16 km
Cloud details: Mostly cloudy 1600 ft
2017/07/24 05:56 KHPN 240556Z 09007KT 10SM BKN016 21/18 A2985 RMK RAB01E21 SLP102
 
KSMQ - Somerville, New Jersey, USA
Distance from station: WSW 34mi, 55km
Updated: 07/24/2017 1:53am
Overcast
Overcast
 Wind from E
Wind: E 6 mph , 9 km/h
Temperature: 73°F , 23°C
Dew Point: 66°F , 19°C
Humidity: 78%
Barometer: 29.79 inHg , 1008.8 hPa
Clouds: Overcast
Visibility: 10 miles , 16 km
Cloud details: Overcast 4300 ft
2017/07/24 05:53 KSMQ 240553Z AUTO 08005KT 10SM OVC043 23/19 A2979 RMK AO2 SLP087 60002 T02280194 10239 20217 58007
K12N - Andover, New Jersey, USA
Distance from station: WNW 36mi, 57km
Updated: 07/24/2017 1:54am

 Wind from calm
Wind: Calm
Temperature: 70°F , 21°C
Dew Point: 66°F , 19°C
Humidity: 88%
Barometer: 29.83 inHg , 1010.2 hPa
2017/07/24 05:54 K12N 240554Z AUTO 00000KT 21/19 A2983 RMK AO1 SLP094 60001 T02110189 10228 20206 58005
 
KFRG - Farmingdale, New York, USA
Distance from station: ESE 36mi, 58km
Updated: 07/24/2017 1:53am
Light rain, Overcast
Light rain, Overcast
 Wind from ESE
Wind: ESE 13 mph , 20 km/h
Temperature: 72°F , 22°C
Dew Point: 64°F , 18°C
Humidity: 78%
Barometer: 29.85 inHg , 1010.8 hPa
Summary: Light rain
Clouds: Overcast
Visibility: 10 miles , 16 km
Cloud details: Partly cloudy 1800 ft
Overcast 6000 ft
2017/07/24 05:53 KFRG 240553Z AUTO 12011KT 10SM -RA SCT018 OVC060 22/18 A2985 RMK AO2 RAB46 SLP106 P0000 60000 T02220183 10233 20217 56010
KFWN - Sussex, New Jersey, USA
Distance from station: NW 37mi, 60km
Updated: 07/24/2017 2:33am
Overcast
Overcast
 Wind from varies
Wind: varies 3 mph , 6 km/h
Temperature: 70°F , 21°C
Dew Point: 68°F , 20°C
Humidity: 94%
Barometer: 29.83 inHg , 1010.2 hPa
Clouds: Overcast
Visibility: 8 miles , 13 km
Cloud details: Mostly cloudy 2100 ft
Overcast 4800 ft
2017/07/24 06:33 KFWN 240633Z AUTO VRB03KT 8SM BKN021 OVC048 21/20 A2983 RMK AO2 RAE02 P0000 T02060200 $
 
KSWF - Newburgh/Stewart, New York, USA
Distance from station: 0 45mi, 72km
Updated: 07/24/2017 1:45am
Light rain, Overcast
Light rain, Overcast
 Wind from SE
Wind: SE 12 mph , 19 km/h
Temperature: 68°F , 20°C
Dew Point: 66°F , 19°C
Humidity: 94%
Barometer: 29.88 inHg , 1011.9 hPa
Summary: Light rain
Clouds: Overcast
Visibility: 7 miles , 11 km
Cloud details: Overcast 1500 ft
2017/07/24 05:45 KSWF 240545Z 14010KT 7SM -RA OVC015 20/19 A2988
KMGJ - Montgomery, New York, USA
Distance from station: NNW 47mi, 75km
Updated: 07/24/2017 2:29am
Overcast
Overcast
 Wind from E
Wind: E 7 mph , 11 km/h
Temperature: 70°F , 21°C
Dew Point: 64°F , 18°C
Humidity: 83%
Barometer: 29.84 inHg , 1010.5 hPa
Clouds: Overcast
Visibility: 10 miles , 16 km
Cloud details: Few Clouds 1400 ft
Mostly cloudy 2200 ft
Overcast 2700 ft
2017/07/24 06:29 KMGJ 240629Z AUTO 10006KT 10SM FEW014 BKN022 OVC027 21/18 A2984 RMK AO2 RAE22 P0000 T02060183 TSNO
 
KBLM - Belmar/Farmdale, New Jersey, USA
Distance from station: S 47mi, 76km
Updated: 07/24/2017 2:31am
Light rain, Overcast
Light rain, Overcast
 Wind from E
Wind: E 9 mph , 15 km/h
Temperature: 72°F , 22°C
Dew Point: 70°F , 21°C
Humidity: 94%
Barometer: 29.81 inHg , 1009.5 hPa
Summary: Light rain
Clouds: Overcast
Visibility: 8 miles , 13 km
Cloud details: Mostly cloudy 900 ft
Mostly cloudy 1300 ft
Overcast 2500 ft
2017/07/24 06:31 KBLM 240631Z AUTO 10008KT 8SM -RA BKN009 BKN013 OVC025 22/21 A2981 RMK AO2 LTG DSNT SE CIG 006V012 P0007
KDXR - Danbury, Connecticut, USA
Distance from station: NE 47mi, 76km
Updated: 07/24/2017 2:20am
Overcast
Overcast
 Wind from ENE
Wind: ENE 6 mph , 9 km/h
Temperature: 64°F , 18°C
Dew Point: 61°F , 16°C
Humidity: 88%
Barometer: 29.89 inHg , 1012.2 hPa
Clouds: Overcast
Visibility: 10 miles , 16 km
Cloud details: Mostly cloudy 1800 ft
Overcast 6000 ft
2017/07/24 06:20 KDXR 240620Z 07005KT 10SM BKN018 OVC060 18/16 A2989 RMK AO2 RAE20 P0000 T01830161
 
KISP - Islip, New York, USA
Distance from station: E 52mi, 83km
Updated: 07/24/2017 2:12am
Overcast
Overcast
 Wind from E
Wind: E 9 mph , 15 km/h
Temperature: 72°F , 22°C
Dew Point: 66°F , 19°C
Humidity: 83%
Barometer: 29.84 inHg , 1010.5 hPa
Clouds: Overcast
Visibility: 10 miles , 16 km
Cloud details: Mostly cloudy 1900 ft
Overcast 6500 ft
2017/07/24 06:12 KISP 240612Z AUTO 10008KT 10SM BKN019 OVC065 22/19 A2984 RMK AO2 T02220194
KBDR - Bridgeport, Connecticut, USA
Distance from station: ENE 54mi, 87km
Updated: 07/24/2017 1:52am
Light rain, Overcast
Light rain, Overcast
 Wind from E
Wind: E 14 mph , 22 km/h
Temperature: 70°F , 21°C
Dew Point: 64°F , 18°C
Humidity: 83%
Barometer: 29.87 inHg , 1011.5 hPa
Summary: Light rain
Clouds: Overcast
Visibility: 10 miles , 16 km
Cloud details: Mostly cloudy 1700 ft
Overcast 2100 ft
2017/07/24 05:52 KBDR 240552Z AUTO 09012KT 10SM -RA BKN017 OVC021 21/18 A2987 RMK AO2 RAB43 SLP113 P0000 60000 T02110178 10233 20211 58005
 
KTTN - Trenton, New Jersey, USA
Distance from station: SW 55mi, 88km
Updated: 07/24/2017 2:05am
Overcast
Overcast
 Wind from E
Wind: E 8 mph , 13 km/h
Temperature: 72°F , 22°C
Dew Point: 68°F , 20°C
Humidity: 88%
Barometer: 29.79 inHg , 1008.8 hPa
Clouds: Overcast
Visibility: 10 miles , 16 km
Cloud details: Overcast 1300 ft
2017/07/24 06:05 KTTN 240605Z AUTO 09007KT 10SM OVC013 22/20 A2979 RMK AO2 T02170200
KPOU - Poughkeepsie, New York, USA
Distance from station: N 55mi, 89km
Updated: 07/24/2017 1:53am
Overcast
Overcast
 Wind from ESE
Wind: ESE 8 mph , 13 km/h
Temperature: 70°F , 21°C
Dew Point: 61°F , 16°C
Humidity: 73%
Barometer: 29.85 inHg , 1010.8 hPa
Clouds: Overcast
Visibility: 10 miles , 16 km
Cloud details: Mostly cloudy 2200 ft
Overcast 6000 ft
2017/07/24 05:53 KPOU 240553Z 12007KT 10SM BKN022 OVC060 21/16 A2985 RMK AO2 SLP103 T02060161 10233 20206 55003
 
KNEL - Lakehurst Nas, New Jersey, USA
Distance from station: SSW 59mi, 95km
Updated: 07/24/2017 2:09am
Light rain, Mist, Overcast
Light rain, Mist, Overcast
 Wind from E
Wind: E 9 mph , 15 km/h
Temperature: 72°F , 22°C
Dew Point: 72°F , 22°C
Humidity: 100%
Barometer: 29.77 inHg , 1008.1 hPa
Summary: Light rain, Mist
Clouds: Overcast
Visibility: 5 miles , 8 km
Cloud details: Mostly cloudy 600 ft
Mostly cloudy 1500 ft
Overcast 5000 ft
2017/07/24 06:09 KNEL 240609Z AUTO 09008KT 5SM -RA BR BKN006 BKN015 OVC050 22/22 A2977 RMK AO2 P0009 $
KWRI - Wrightst/Mcguire, New Jersey, USA
Distance from station: SSW 63mi, 102km
Updated: 07/24/2017 2:33am
Mostly cloudy
Mostly cloudy
 Wind from ESE
Wind: ESE 6 mph , 9 km/h
Temperature: 72°F , 22°C
Dew Point: 70°F , 21°C
Humidity: 94%
Barometer: 29.75 inHg , 1007.5 hPa
Clouds: Mostly cloudy
Visibility: 7 miles , 11 km
Cloud details: Few Clouds 400 ft
Mostly cloudy 600 ft
Mostly cloudy 800 ft
2017/07/24 06:33 KWRI 240633Z 12005KT 7SM FEW004 BKN006 BKN008 22/21 A2975 RMK AO2A RAE33 WND DATA ESTMD ALSTG ESTMD
 
KHWV - Shirley, New York, USA
Distance from station: E 64mi, 103km
Updated: 07/24/2017 1:56am
Mostly cloudy
Mostly cloudy
 Wind from varies
Wind: varies 5 mph , 7 km/h
Temperature: 72°F , 22°C
Dew Point: 66°F , 19°C
Humidity: 83%
Barometer: 29.85 inHg , 1010.8 hPa
Clouds: Mostly cloudy
Visibility: 10 miles , 16 km
Cloud details: Mostly cloudy 1900 ft
Mostly cloudy 7000 ft
2017/07/24 05:56 KHWV 240556Z AUTO VRB04KT 10SM BKN019 BKN070 22/19 A2985 RMK AO2 SLP107 T02170194 10222 20217 58014
KMJX - Toms River, New Jersey, USA
Distance from station: S 64mi, 104km
Updated: 07/24/2017 2:10am
Light rain, Mist, Overcast
Light rain, Mist, Overcast
 Wind from varies
Wind: varies 5 mph , 7 km/h
Temperature: 72°F , 22°C
Dew Point: 72°F , 22°C
Humidity: 100%
Barometer: 29.79 inHg , 1008.8 hPa
Summary: Light rain, Mist
Clouds: Overcast
Visibility: 6 miles , 10 km
Cloud details: Overcast 400 ft
2017/07/24 06:10 KMJX 240610Z AUTO VRB04KT 6SM -RA BR OVC004 22/22 A2979 RMK AO2 LTG DSNT S CIG 003V007 P0002
 
KDYL - Doylestown, Pennsylvania, USA
Distance from station: SW 65mi, 104km
Updated: 07/24/2017 1:54am
Overcast
Overcast
 Wind from calm
Wind: Calm
Temperature: 70°F , 21°C
Dew Point: 66°F , 19°C
Humidity: 88%
Barometer: 29.79 inHg , 1008.8 hPa
Clouds: Overcast
Visibility: 10 miles , 16 km
Cloud details: Overcast 1400 ft
2017/07/24 05:54 KDYL 240554Z AUTO 00000KT 10SM OVC014 21/19 A2979 RMK AO2 SLP083 60030 T02060194 10239 20206 58017
KOXC - Oxford/Waterbury, Connecticut, USA
Distance from station: NE 65mi, 105km
Updated: 07/24/2017 2:35am
Mostly cloudy
Mostly cloudy
 Wind from calm
Wind: Calm
Temperature: 64°F , 18°C
Dew Point: 55°F , 13°C
Humidity: 73%
Barometer: 29.89 inHg , 1012.2 hPa
Clouds: Mostly cloudy
Visibility: 10 miles , 16 km
Cloud details: Mostly cloudy 7500 ft
Mostly cloudy 12000 ft
2017/07/24 06:35 KOXC 240635Z AUTO 00000KT 10SM BKN075 BKN120 18/13 A2989 RMK AO1
 
KMSV - Monticello, New York, USA
Distance from station: NNW 69mi, 111km
Updated: 07/14/2017 3:55pm
NOT Current
Mist, Overcast
Mist, Overcast
 Wind from S
Wind: S 6 mph , 9 km/h
Temperature: 70°F , 21°C
Dew Point: 68°F , 20°C
Humidity: 94%
Barometer: 30.02 inHg , 1016.6 hPa
Summary: Mist
Clouds: Overcast
Visibility: 6 miles , 10 km
Cloud details: Overcast 500 ft
2017/07/14 19:55 KMSV 141955Z 18005KT 6SM BR OVC005 21/20 A3002 RMK VSBY S 1
KHVN - New Haven/Tweed, Connecticut, USA
Distance from station: ENE 70mi, 112km
Updated: 07/24/2017 2:33am
Overcast
Overcast
 Wind from E
Wind: E 13 mph , 20 km/h, Gust: 20 mph , 31 km/h
Temperature: 68°F , 20°C
Dew Point: 61°F , 16°C
Humidity: 78%
Barometer: 29.87 inHg , 1011.5 hPa
Clouds: Overcast
Visibility: 10 miles , 16 km
Cloud details: Mostly cloudy 1500 ft
Overcast 7500 ft
2017/07/24 06:33 KHVN 240633Z AUTO 09011G17KT 10SM BKN015 OVC075 20/16 A2987 RMK AO2 T02000161
 
KMPO - Mt. Pocono, Pennsylvania, USA
Distance from station: WNW 70mi, 113km
Updated: 07/24/2017 2:25am
Overcast
Overcast
 Wind from ESE
Wind: ESE 10 mph , 17 km/h
Temperature: 64°F , 18°C
Dew Point: 64°F , 18°C
Humidity: 100%
Barometer: 29.86 inHg , 1011.2 hPa
Clouds: Overcast
Visibility: 10 miles , 16 km
Cloud details: Partly cloudy 500 ft
Mostly cloudy 1000 ft
Overcast 1300 ft
2017/07/24 06:25 KMPO 240625Z AUTO 12009KT 10SM SCT005 BKN010 OVC013 18/18 A2986 RMK AO2 RAE17 CIG 007V012 P0001 T01780178
KPNE - Philadelphia/Ne, Pennsylvania, USA
Distance from station: SW 72mi, 116km
Updated: 07/24/2017 1:54am
Overcast
Overcast
 Wind from E
Wind: E 6 mph , 9 km/h
Temperature: 73°F , 23°C
Dew Point: 70°F , 21°C
Humidity: 89%
Barometer: 29.80 inHg , 1009.1 hPa
Clouds: Overcast
Visibility: 10 miles , 16 km
Cloud details: Mostly cloudy 800 ft
Overcast 6000 ft
2017/07/24 05:54 KPNE 240554Z AUTO 08005KT 10SM BKN008 OVC060 23/21 A2980 RMK AO2 CIG 007V012 SLP090 60035 T02280206 10250 20222 58016
 
KABE - Allentown, Pennsylvania, USA
Distance from station: W 73mi, 117km
Updated: 07/24/2017 1:51am
Overcast
Overcast
 Wind from E
Wind: E 8 mph , 13 km/h
Temperature: 72°F , 22°C
Dew Point: 66°F , 19°C
Humidity: 83%
Barometer: 29.80 inHg , 1009.1 hPa
Clouds: Overcast
Visibility: 10 miles , 16 km
Cloud details: Partly cloudy 1500 ft
Mostly cloudy 2100 ft
Overcast 2600 ft
2017/07/24 05:51 KABE 240551Z 08007KT 10SM SCT015 BKN021 OVC026 22/19 A2980 RMK AO2 SLP088 60017 T02170189 10261 20217 58012
KUKT - Quakertown Arp, Pennsylvania, USA
Distance from station: WSW 74mi, 119km
Updated: 07/24/2017 2:35am
Overcast
Overcast
 Wind from E
Wind: E 6 mph , 9 km/h
Temperature: 68°F , 20°C
Dew Point: 68°F , 20°C
Humidity: 100%
Barometer: 29.79 inHg , 1008.8 hPa
Clouds: Overcast
Visibility: 10 miles , 16 km
Cloud details: Overcast 1400 ft
2017/07/24 06:35 KUKT 240635Z AUTO 10005KT 10SM OVC014 20/20 A2979 RMK AO1
 
KVAY - Mount Holly, New Jersey, USA
Distance from station: SSW 75mi, 120km
Updated: 07/24/2017 1:54am
Overcast
Overcast
 Wind from varies
Wind: varies 6 mph , 9 km/h
Temperature: 70°F , 21°C
Dew Point: 70°F , 21°C
Humidity: 100%
Barometer: 29.77 inHg , 1008.1 hPa
Clouds: Overcast
Visibility: 9 miles , 14 km
Cloud details: Overcast 600 ft
2017/07/24 05:54 KVAY 240554Z AUTO VRB05KT 9SM OVC006 21/21 A2977 RMK AO2 LTG DSNT SE RAB05E32 CIG 003V010 SLP080 6//// T02110211 10233 20206 56016 PNO $
KXLL - Allentown Queen, Pennsylvania, USA
Distance from station: WSW 76mi, 122km
Updated: 07/24/2017 2:35am
Overcast
Overcast
 Wind from E
Wind: E 8 mph , 13 km/h
Temperature: 70°F , 21°C
Dew Point: 68°F , 20°C
Humidity: 94%
Barometer: 29.79 inHg , 1008.8 hPa
Clouds: Overcast
Visibility: 10 miles , 16 km
Cloud details: Overcast 1300 ft
2017/07/24 06:35 KXLL 240635Z AUTO 08007KT 10SM OVC013 21/20 A2979 RMK AO2 LTG DSNT SE
 
KFOK - Westhampton Beac, New York, USA
Distance from station: E 77mi, 124km
Updated: 07/24/2017 2:32am
Overcast
Overcast
 Wind from ESE
Wind: ESE 13 mph , 20 km/h, Gust: 18 mph , 30 km/h
Temperature: 70°F , 21°C
Dew Point: 64°F , 18°C
Humidity: 83%
Clouds: Overcast
Visibility: 10 miles , 16 km
Cloud details: Partly cloudy 1400 ft
Mostly cloudy 8000 ft
Overcast 10000 ft
2017/07/24 06:32 KFOK 240632Z AUTO 11011G16KT 10SM SCT014 BKN080 OVC100 21/18 RMK AO2 T02110178 $
KLOM - Philly Wings F, Pennsylvania, USA
Distance from station: SW 79mi, 128km
Updated: 07/24/2017 2:15am
Overcast
Overcast
 Wind from E
Wind: E 6 mph , 9 km/h
Temperature: 68°F , 20°C
Dew Point: 68°F , 20°C
Humidity: 100%
Barometer: 29.79 inHg , 1008.8 hPa
Clouds: Overcast
Visibility: 10 miles , 16 km
Cloud details: Overcast 700 ft
2017/07/24 06:15 KLOM 240615Z AUTO 10005KT 10SM OVC007 20/20 A2979 RMK AO1
 
KMMK - Meriden, Connecticut, USA
Distance from station: NE 80mi, 128km
Updated: 07/24/2017 1:53am
Partly cloudy
Partly cloudy
 Wind from calm
Wind: Calm
Temperature: 66°F , 19°C
Dew Point: 57°F , 14°C
Humidity: 73%
Barometer: 29.89 inHg , 1012.2 hPa
Clouds: Partly cloudy
Visibility: 10 miles , 16 km
Cloud details: Few Clouds 3500 ft
Partly cloudy 7500 ft
2017/07/24 05:53 KMMK 240553Z AUTO 00000KT 10SM FEW035 SCT075 19/14 A2989 RMK AO2 SLP121 T01940144 10217 20194 58002 TSNO
KPTW - Pottstown, Pennsylvania, USA
Distance from station: WSW 88mi, 141km
Updated: 07/24/2017 2:36am
Heavy rain, Mist, Overcast
Heavy rain, Mist, Overcast
 Wind from ENE
Wind: ENE 5 mph , 7 km/h
Temperature: 68°F , 20°C
Dew Point: 68°F , 20°C
Humidity: 100%
Barometer: 29.79 inHg , 1008.8 hPa
Summary: Heavy rain, Mist
Clouds: Overcast
Visibility: 1 mile , 2 km
Cloud details: Overcast 900 ft
2017/07/24 06:36 KPTW 240636Z AUTO 07004KT 1SM +RA BR OVC009 20/20 A2979 RMK AO2 LTG DSNT SE AND S RAB13 P0027 T02000200
 
KSNC - Chester, Connecticut, USA
Distance from station: ENE 90mi, 146km
Updated: 07/24/2017 2:35am
Few Clouds
Few Clouds
 Wind from E
Wind: E 6 mph , 9 km/h
Temperature: 66°F , 19°C
Dew Point: 59°F , 15°C
Humidity: 78%
Barometer: 29.89 inHg , 1012.2 hPa
Clouds: Few Clouds
Visibility: 10 miles , 16 km
Cloud details: Few Clouds 7000 ft
Few Clouds 8000 ft
2017/07/24 06:35 KSNC 240635Z AUTO 10005KT 10SM FEW070 FEW080 19/15 A2989 RMK AO2
KPHL - Philadelphia, Pennsylvania, USA
Distance from station: SW 91mi, 146km
Updated: 07/24/2017 2:35am
Thunderstorm rain, Mist, Overcast
Thunderstorm rain, Mist, Overcast
 Wind from E
Wind: E 5 mph , 7 km/h
Temperature: 72°F , 22°C
Dew Point: 70°F , 21°C
Humidity: 94%
Barometer: 29.78 inHg , 1008.5 hPa
Summary: Thunderstorm rain, Mist
Clouds: Overcast
Visibility: 2 1/2 miles , 2 km
Cloud details: Mostly cloudy 600 ft
Mostly cloudy 2300 ft
Overcast 6000 ft
2017/07/24 06:35 KPHL 240635Z 09004KT 2 1/2SM TSRA BR BKN006 BKN023CB OVC060 22/21 A2978 RMK AO2 LTG DSNT SW TSB28 FRQ LTGICCG OHD TS OHD MOV E P0031 T02170211 $
 
KAVP - Avoca/Wilkes B., Pennsylvania, USA
Distance from station: WNW 91mi, 147km
Updated: 07/24/2017 1:54am
Light rain, Overcast
Light rain, Overcast
 Wind from NNE
Wind: NNE 3 mph , 6 km/h
Temperature: 70°F , 21°C
Dew Point: 66°F , 19°C
Humidity: 88%
Barometer: 29.83 inHg , 1010.2 hPa
Summary: Light rain
Clouds: Overcast
Visibility: 7 miles , 11 km
Cloud details: Overcast 1500 ft
2017/07/24 05:54 KAVP 240554Z 03003KT 7SM -RA OVC015 21/19 A2983 RMK AO2 SLP091 P0001 60002 T02110189 10244 20211 51003 $
KHFD - Hartford/Brainar, Connecticut, USA
Distance from station: NE 96mi, 155km
Updated: 07/24/2017 1:53am
Overcast
Overcast
 Wind from ESE
Wind: ESE 8 mph , 13 km/h
Temperature: 70°F , 21°C
Dew Point: 55°F , 13°C
Humidity: 60%
Barometer: 29.89 inHg , 1012.2 hPa
Clouds: Overcast
Visibility: 10 miles , 16 km
Cloud details: Overcast 8000 ft
2017/07/24 05:53 KHFD 240553Z AUTO 12007KT 10SM OVC080 21/13 A2989 RMK AO2 SLP120 T02060128 10239 20206 58002
 
KHTO - East Hampton, New York, USA
Distance from station: E 96mi, 155km
Updated: 07/24/2017 2:15am
Mostly cloudy
Mostly cloudy
 Wind from E
Wind: E 12 mph , 19 km/h
Temperature: 68°F , 20°C
Dew Point: 63°F , 17°C
Humidity: 83%
Barometer: 29.86 inHg , 1011.2 hPa
Clouds: Mostly cloudy
Visibility: 10 miles , 16 km
Cloud details: Partly cloudy 1600 ft
Mostly cloudy 8000 ft
Mostly cloudy 12000 ft
2017/07/24 06:15 KHTO 240615Z AUTO 10010KT 10SM SCT016 BKN080 BKN120 20/17 A2986 RMK AO2 T02000171
KACY - Atlantic City, New Jersey, USA
Distance from station: SSW 99mi, 160km
Updated: 07/24/2017 2:35am
Mostly cloudy
Mostly cloudy
 Wind from NE
Wind: NE 3 mph , 6 km/h
Temperature: 73°F , 23°C
Dew Point: 72°F , 22°C
Humidity: 94%
Barometer: 29.75 inHg , 1007.5 hPa
Clouds: Mostly cloudy
Visibility: 10 miles , 16 km
Cloud details: Few Clouds 2500 ft
Partly cloudy 3100 ft
Mostly cloudy 10000 ft
2017/07/24 06:35 KACY 240635Z 05003KT 10SM FEW025 SCT031 BKN100 23/22 A2975 RMK AO2 RAE03 P0000 T02330222